Lemolo, Washington
Current Conditions -  °F | °C
As of 2:35 PM on Friday 24 Oct 2014 (Local Time) from KPWT Reporting Station
Clear Clear  
Wind Chill: 54°   Ceiling: Unl
Heat Index: 54°   Visibility: 10mi
Dew Point: 48°   Wind: 8mph
Humidity: 82%   Direction: 20°NNE
Pressure: 29.97"   Gusts: NA
Location:  47.7571°N, 122.623°W
Report Text: KPWT 242135Z AUTO 02007KT 10SM CLR 12/09 A2997 RMK AO1
Loading
Personal Weather Stations






























Interactive Weather Map
Tropical Storm Tracking
New forecast layout! Learn more

10-Day Weather Forecast

Advertisements
Track Severe Weather on mobile